createdAt,value
2022-10-05T00:01:21.463Z,9.62
2022-10-05T00:03:49.731Z,9.65
2022-10-05T00:06:17.346Z,9.75
2022-10-05T00:08:45.041Z,9.99
2022-10-05T00:11:14.623Z,9.65
2022-10-05T00:13:42.490Z,9.67
2022-10-05T00:16:15.983Z,9.56
2022-10-05T00:18:50.116Z,9.45
2022-10-05T00:21:24.041Z,9.25
2022-10-05T00:23:52.199Z,9.16
2022-10-05T00:26:22.993Z,9.11
2022-10-05T00:28:51.395Z,9.09
2022-10-05T00:31:32.899Z,9.01
2022-10-05T00:34:00.462Z,8.89
2022-10-05T00:36:27.991Z,8.91
2022-10-05T00:38:55.636Z,8.89
2022-10-05T00:41:28.976Z,8.85
2022-10-05T00:44:08.474Z,8.85
2022-10-05T00:46:48.590Z,8.78
2022-10-05T00:49:38.206Z,8.77
2022-10-05T00:52:38.633Z,8.81
2022-10-05T00:55:49.084Z,8.61
2022-10-05T00:58:57.758Z,8.62
2022-10-05T01:01:34.498Z,8.79
2022-10-05T01:04:05.143Z,8.71
2022-10-05T01:06:44.809Z,8.69
2022-10-05T01:09:22.935Z,8.55
2022-10-05T01:12:14.234Z,8.55
2022-10-05T01:15:07.964Z,8.43
2022-10-05T01:17:46.285Z,8.50
2022-10-05T01:20:35.503Z,8.50
2022-10-05T01:23:33.601Z,8.47
2022-10-05T01:26:39.907Z,8.47
2022-10-05T01:29:24.957Z,8.44
2022-10-05T01:32:23.484Z,8.55
2022-10-05T01:35:05.668Z,8.49
2022-10-05T01:37:48.054Z,8.35
2022-10-05T01:40:27.719Z,8.38
2022-10-05T01:43:16.606Z,8.21
2022-10-05T01:46:02.420Z,8.14
2022-10-05T01:48:38.931Z,7.95
2022-10-05T01:51:30.824Z,8.12
2022-10-05T01:54:46.342Z,8.05
2022-10-05T01:57:52.367Z,8.07
2022-10-05T02:00:20.808Z,8.41
2022-10-05T02:02:52.839Z,8.50
2022-10-05T02:05:24.668Z,8.40
2022-10-05T02:08:03.412Z,8.55
2022-10-05T02:10:56.153Z,8.31
2022-10-05T02:13:55.960Z,8.20
2022-10-05T02:16:30.668Z,8.17
2022-10-05T02:19:03.897Z,8.15
2022-10-05T02:21:35.103Z,8.11
2022-10-05T02:24:07.229Z,8.07
2022-10-05T02:26:36.502Z,8.17
2022-10-05T02:29:08.997Z,8.14
2022-10-05T02:31:43.264Z,8.08
2022-10-05T02:34:27.441Z,8.06
2022-10-05T02:37:27.875Z,7.98
2022-10-05T02:40:32.884Z,7.88
2022-10-05T02:43:12.600Z,7.85
2022-10-05T02:46:04.870Z,7.79
2022-10-05T02:48:35.652Z,8.01
2022-10-05T02:51:19.148Z,7.85
2022-10-05T02:54:12.085Z,7.98
2022-10-05T02:57:05.314Z,8.04
2022-10-05T02:59:47.899Z,8.04
2022-10-05T03:02:19.629Z,8.04
2022-10-05T03:04:50.036Z,8.21
2022-10-05T03:07:27.370Z,7.88
2022-10-05T03:10:03.660Z,8.00
2022-10-05T03:12:39.395Z,7.80
2022-10-05T03:15:49.171Z,7.63
2022-10-05T03:18:35.525Z,7.54
2022-10-05T03:21:38.626Z,7.54
2022-10-05T03:24:41.072Z,7.63
2022-10-05T03:27:18.905Z,7.68
2022-10-05T03:29:52.281Z,7.70
2022-10-05T03:32:45.675Z,7.62
2022-10-05T03:35:31.934Z,7.65
2022-10-05T03:38:10.482Z,11.73
2022-10-05T03:40:41.629Z,12.85
2022-10-05T03:43:21.127Z,12.80
2022-10-05T03:45:59.266Z,12.97
2022-10-05T03:48:38.324Z,13.17
2022-10-05T03:51:13.694Z,13.79
2022-10-05T03:53:53.114Z,12.38
2022-10-05T03:56:41.934Z,10.44
2022-10-05T03:59:14.595Z,9.71
2022-10-05T04:02:11.612Z,9.52
2022-10-05T04:04:52.543Z,8.57
2022-10-05T04:07:32.124Z,8.60
2022-10-05T04:10:03.405Z,8.15
2022-10-05T04:12:40.172Z,7.93
2022-10-05T04:15:28.641Z,7.67
2022-10-05T04:18:11.518Z,7.53
2022-10-05T04:20:49.407Z,7.60
2022-10-05T04:23:49.735Z,7.48
2022-10-05T04:26:42.609Z,7.41
2022-10-05T04:29:30.359Z,7.38
2022-10-05T04:32:20.176Z,7.50
2022-10-05T04:34:54.366Z,7.30
2022-10-05T04:38:03.949Z,7.31
2022-10-05T04:41:01.794Z,7.23
2022-10-05T04:43:44.630Z,7.28
2022-10-05T04:46:41.406Z,7.19
2022-10-05T04:49:14.362Z,7.23
2022-10-05T04:52:04.134Z,7.17
2022-10-05T04:54:56.237Z,7.14
2022-10-05T04:57:51.427Z,7.21
2022-10-05T05:00:31.480Z,7.35
2022-10-05T05:03:19.847Z,7.24
2022-10-05T05:06:22.369Z,7.33
2022-10-05T05:09:02.397Z,7.27
2022-10-05T05:11:52.027Z,7.26
2022-10-05T05:14:37.610Z,7.39
2022-10-05T05:17:34.329Z,7.50
2022-10-05T05:20:27.767Z,7.71
2022-10-05T05:23:34.456Z,7.81
2022-10-05T05:26:22.049Z,7.90
2022-10-05T05:29:03.984Z,7.95
2022-10-05T05:31:48.423Z,8.04
2022-10-05T05:34:40.387Z,8.06
2022-10-05T05:37:21.226Z,8.20
2022-10-05T05:40:04.021Z,8.29
2022-10-05T05:42:43.016Z,8.35
2022-10-05T05:45:24.406Z,8.42
2022-10-05T05:47:59.372Z,8.55
2022-10-05T05:50:48.907Z,8.58
2022-10-05T05:53:29.857Z,8.57
2022-10-05T05:56:11.198Z,8.74
2022-10-05T05:58:50.918Z,9.01
2022-10-05T06:01:35.471Z,9.06
2022-10-05T06:04:39.230Z,9.00
2022-10-05T06:07:11.478Z,9.10
2022-10-05T06:09:51.502Z,9.15
2022-10-05T06:13:01.487Z,9.27
2022-10-05T06:15:48.940Z,9.25
2022-10-05T06:18:24.356Z,9.48
2022-10-05T06:21:19.802Z,9.69
2022-10-05T06:24:05.036Z,9.93
2022-10-05T06:27:08.607Z,10.52
2022-10-05T06:33:41.033Z,10.78
2022-10-05T06:36:42.072Z,10.55
2022-10-05T06:39:26.927Z,10.38
2022-10-05T06:42:31.984Z,10.59
2022-10-05T06:45:10.744Z,11.04
2022-10-05T06:47:54.013Z,11.01
2022-10-05T06:50:44.177Z,11.06
2022-10-05T06:53:20.387Z,11.05
2022-10-05T06:56:15.299Z,10.94
2022-10-05T06:58:57.331Z,11.01
2022-10-05T07:01:40.548Z,10.88
2022-10-05T07:04:37.362Z,10.89
2022-10-05T07:07:06.431Z,11.02
2022-10-05T07:09:55.904Z,11.12
2022-10-05T07:12:26.195Z,11.02
2022-10-05T07:15:23.645Z,11.21
2022-10-05T07:17:56.861Z,11.30
2022-10-05T07:20:34.140Z,11.41
2022-10-05T07:23:30.000Z,11.57
2022-10-05T07:26:29.999Z,11.63
2022-10-05T07:29:22.288Z,11.80
2022-10-05T07:32:11.440Z,11.93
2022-10-05T07:35:14.330Z,12.13
2022-10-05T07:37:52.121Z,12.25
2022-10-05T07:40:49.600Z,12.34
2022-10-05T07:44:00.616Z,12.45
2022-10-05T07:46:35.278Z,12.56
2022-10-05T07:49:15.438Z,12.82
2022-10-05T07:51:51.033Z,12.95
2022-10-05T07:54:28.734Z,12.96
2022-10-05T07:57:24.384Z,12.94
2022-10-05T08:00:05.764Z,13.12
2022-10-05T08:02:51.516Z,13.29
2022-10-05T08:05:58.908Z,13.41
2022-10-05T08:08:39.704Z,13.63
2022-10-05T08:11:30.402Z,13.70
2022-10-05T08:14:08.185Z,13.79
2022-10-05T08:16:43.685Z,13.83
2022-10-05T08:19:32.594Z,13.86
2022-10-05T08:22:09.973Z,13.98
2022-10-05T08:24:51.476Z,14.15
2022-10-05T08:27:42.102Z,14.10
2022-10-05T08:30:15.506Z,14.56
2022-10-05T08:33:15.406Z,14.56
2022-10-05T08:35:50.247Z,14.61
2022-10-05T08:38:25.364Z,14.60
2022-10-05T08:41:18.058Z,14.85
2022-10-05T08:44:27.154Z,15.02
2022-10-05T08:47:02.290Z,15.25
2022-10-05T08:49:52.694Z,15.67
2022-10-05T08:52:21.188Z,16.08
2022-10-05T08:55:20.255Z,16.32
2022-10-05T08:57:56.702Z,16.44
2022-10-05T09:00:55.758Z,16.47
2022-10-05T09:03:51.375Z,16.81
2022-10-05T09:06:38.721Z,17.00
2022-10-05T09:09:29.849Z,17.34
2022-10-05T09:12:09.748Z,17.36
2022-10-05T09:15:20.956Z,17.43
2022-10-05T09:18:22.933Z,17.36
2022-10-05T09:20:58.890Z,17.59
2022-10-05T09:23:41.204Z,17.50
2022-10-05T09:26:55.780Z,17.76
2022-10-05T09:29:45.159Z,17.75
2022-10-05T09:32:48.332Z,17.45
2022-10-05T09:35:47.482Z,17.29
2022-10-05T09:38:31.009Z,17.28
2022-10-05T09:41:10.914Z,17.35
2022-10-05T09:44:06.240Z,17.38
2022-10-05T09:46:44.504Z,17.62
2022-10-05T09:49:39.914Z,17.69
2022-10-05T09:52:23.421Z,17.68
2022-10-05T09:55:25.802Z,17.71
2022-10-05T09:58:23.664Z,17.78
2022-10-05T10:01:09.599Z,17.60
2022-10-05T10:04:05.552Z,19.38
2022-10-05T10:07:05.809Z,18.73
2022-10-05T10:09:39.262Z,18.31
2022-10-05T10:12:28.226Z,18.18
2022-10-05T10:15:24.214Z,18.21
2022-10-05T10:18:08.632Z,18.11
2022-10-05T10:21:07.015Z,18.14
2022-10-05T10:23:37.360Z,17.86
2022-10-05T10:26:26.397Z,17.84
2022-10-05T10:29:22.892Z,17.93
2022-10-05T10:32:32.570Z,17.91
2022-10-05T10:35:32.330Z,18.01
2022-10-05T10:41:33.078Z,18.02
2022-10-05T10:44:19.470Z,18.06
2022-10-05T10:46:50.077Z,18.65
2022-10-05T10:49:55.373Z,19.08
2022-10-05T10:56:19.166Z,19.44
2022-10-05T10:58:49.536Z,19.42
2022-10-05T11:01:40.844Z,19.54
2022-10-05T11:04:35.841Z,19.39
2022-10-05T11:07:30.917Z,18.86
2022-10-05T11:10:17.180Z,18.74
2022-10-05T11:13:08.283Z,18.71
2022-10-05T11:15:57.649Z,18.70
2022-10-05T11:18:31.319Z,18.77
2022-10-05T11:21:17.459Z,18.58
2022-10-05T11:23:54.063Z,18.52
2022-10-05T11:26:59.219Z,18.58
2022-10-05T11:29:46.341Z,18.65
2022-10-05T11:32:31.111Z,18.50
2022-10-05T11:35:35.974Z,18.65
2022-10-05T11:38:36.295Z,18.69
2022-10-05T11:41:22.878Z,18.90
2022-10-05T11:44:14.904Z,18.81
2022-10-05T11:46:54.608Z,18.73
2022-10-05T11:49:58.179Z,18.97
2022-10-05T11:52:56.572Z,18.64
2022-10-05T11:55:42.225Z,18.65
2022-10-05T11:58:19.467Z,18.78
2022-10-05T12:01:09.761Z,18.95
2022-10-05T12:03:46.375Z,18.59
2022-10-05T12:06:35.042Z,18.74
2022-10-05T12:09:13.891Z,18.75
2022-10-05T12:11:58.094Z,18.80
2022-10-05T12:14:57.067Z,18.69
2022-10-05T12:17:41.262Z,18.66
2022-10-05T12:20:33.435Z,18.61
2022-10-05T12:23:21.903Z,18.75
2022-10-05T12:25:59.075Z,18.44
2022-10-05T12:28:58.933Z,18.46
2022-10-05T12:31:45.246Z,18.69
2022-10-05T12:34:35.832Z,18.62
2022-10-05T12:37:06.695Z,18.49
2022-10-05T12:39:50.956Z,18.53
2022-10-05T12:42:24.436Z,18.66
2022-10-05T12:45:17.731Z,18.46
2022-10-05T12:48:13.050Z,18.55
2022-10-05T12:50:50.077Z,18.65
2022-10-05T12:53:41.434Z,18.50
2022-10-05T12:56:10.826Z,18.38
2022-10-05T12:59:09.997Z,18.53
2022-10-05T13:01:52.539Z,18.39
2022-10-05T13:04:29.262Z,18.29
2022-10-05T13:07:07.369Z,18.35
2022-10-05T13:10:11.983Z,18.20
2022-10-05T13:13:04.411Z,18.20
2022-10-05T13:15:34.913Z,18.36
2022-10-05T13:18:18.249Z,18.34
2022-10-05T13:21:09.058Z,18.21
2022-10-05T13:24:03.545Z,18.29
2022-10-05T13:26:44.411Z,18.24
2022-10-05T13:29:33.735Z,18.33
2022-10-05T13:32:11.060Z,18.33
2022-10-05T13:34:57.213Z,18.46
2022-10-05T13:37:39.853Z,18.46
2022-10-05T13:40:43.901Z,18.52
2022-10-05T13:43:32.331Z,18.33
2022-10-05T13:46:07.235Z,18.23
2022-10-05T13:49:16.291Z,18.56
2022-10-05T13:51:43.698Z,19.16
2022-10-05T13:54:34.292Z,19.34
2022-10-05T13:57:14.385Z,19.53
2022-10-05T13:59:58.274Z,19.49
2022-10-05T14:02:30.450Z,19.43
2022-10-05T14:05:04.229Z,19.45
2022-10-05T14:07:39.198Z,19.22
2022-10-05T14:10:14.408Z,19.35
2022-10-05T14:12:46.473Z,19.51
2022-10-05T14:15:28.940Z,19.10
2022-10-05T14:17:56.954Z,19.28
2022-10-05T14:20:30.114Z,19.20
2022-10-05T14:23:01.910Z,19.43
2022-10-05T14:25:31.061Z,19.01
2022-10-05T14:28:01.218Z,18.84
2022-10-05T14:30:31.007Z,18.69
2022-10-05T14:33:04.525Z,18.57
2022-10-05T14:35:55.167Z,18.81
2022-10-05T14:38:24.366Z,18.60
2022-10-05T14:41:17.145Z,18.55
2022-10-05T14:44:09.275Z,18.20
2022-10-05T14:46:37.682Z,18.47
2022-10-05T14:49:14.251Z,18.75
2022-10-05T14:51:41.788Z,18.92
2022-10-05T14:54:21.254Z,19.12
2022-10-05T14:57:07.582Z,19.13
2022-10-05T14:59:38.012Z,19.14
2022-10-05T15:02:33.017Z,18.96
2022-10-05T15:05:22.025Z,19.10
2022-10-05T15:07:52.248Z,18.88
2022-10-05T15:10:22.362Z,19.00
2022-10-05T15:12:50.284Z,19.14
2022-10-05T15:15:42.415Z,18.86
2022-10-05T15:18:16.095Z,18.77
2022-10-05T15:21:18.296Z,19.13
2022-10-05T15:24:00.783Z,18.62
2022-10-05T15:26:35.064Z,18.62
2022-10-05T15:29:19.054Z,18.50
2022-10-05T15:32:06.217Z,18.26
2022-10-05T15:34:41.294Z,18.19
2022-10-05T15:37:15.339Z,17.93
2022-10-05T15:40:01.245Z,18.33
2022-10-05T15:42:37.721Z,18.22
2022-10-05T15:45:17.296Z,18.26
2022-10-05T15:48:22.181Z,17.72
2022-10-05T15:50:56.947Z,18.22
2022-10-05T15:53:24.268Z,18.06
2022-10-05T15:56:06.418Z,18.38
2022-10-05T15:58:43.062Z,18.61
2022-10-05T16:01:16.078Z,18.73
2022-10-05T16:03:51.548Z,19.02
2022-10-05T16:06:54.265Z,19.08
2022-10-05T16:09:44.726Z,19.03
2022-10-05T16:12:30.168Z,19.07
2022-10-05T16:15:08.475Z,19.03
2022-10-05T16:18:00.666Z,19.07
2022-10-05T16:20:43.262Z,19.07
2022-10-05T16:23:22.378Z,19.11
2022-10-05T16:25:52.679Z,18.99
2022-10-05T16:28:44.617Z,18.94
2022-10-05T16:31:18.752Z,18.98
2022-10-05T16:34:16.134Z,18.86
2022-10-05T16:37:02.280Z,18.37
2022-10-05T16:39:56.418Z,18.74
2022-10-05T16:42:52.768Z,17.14
2022-10-05T16:45:44.650Z,15.93
2022-10-05T16:48:29.965Z,15.43
2022-10-05T16:51:00.138Z,15.23
2022-10-05T16:53:38.197Z,15.14
2022-10-05T16:56:22.849Z,15.01
2022-10-05T16:59:08.897Z,14.95
2022-10-05T17:02:07.417Z,14.94
2022-10-05T17:04:41.989Z,14.87
2022-10-05T17:07:54.158Z,14.89
2022-10-05T17:11:17.215Z,14.80
2022-10-05T17:13:59.938Z,14.82
2022-10-05T17:17:04.758Z,14.65
2022-10-05T17:20:11.080Z,14.57
2022-10-05T17:23:04.884Z,14.48
2022-10-05T17:25:52.908Z,14.61
2022-10-05T17:28:20.359Z,14.51
2022-10-05T17:31:07.706Z,14.43
2022-10-05T17:34:03.902Z,14.54
2022-10-05T17:36:40.385Z,14.42
2022-10-05T17:39:24.222Z,14.39
2022-10-05T17:41:53.780Z,14.23
2022-10-05T17:44:23.225Z,14.30
2022-10-05T17:46:54.265Z,14.31
2022-10-05T17:50:06.059Z,14.22
2022-10-05T17:52:33.642Z,14.11
2022-10-05T17:55:10.990Z,14.19
2022-10-05T17:57:38.300Z,14.17
2022-10-05T18:00:27.293Z,14.01
2022-10-05T18:02:57.731Z,13.95
2022-10-05T18:05:37.027Z,13.97
2022-10-05T18:08:13.901Z,13.99
2022-10-05T18:11:06.454Z,13.92
2022-10-05T18:13:36.931Z,13.96
2022-10-05T18:16:07.146Z,13.97
2022-10-05T18:18:43.817Z,13.97
2022-10-05T18:21:17.698Z,13.98
2022-10-05T18:23:59.845Z,14.00
2022-10-05T18:26:58.491Z,14.03
2022-10-05T18:29:31.825Z,13.71
2022-10-05T18:32:09.259Z,13.62
2022-10-05T18:34:53.737Z,13.58
2022-10-05T18:37:36.614Z,13.51
2022-10-05T18:40:25.573Z,13.89
2022-10-05T18:43:13.004Z,13.80
2022-10-05T18:46:06.994Z,13.65
2022-10-05T18:48:55.605Z,13.52
2022-10-05T18:51:35.013Z,13.52
2022-10-05T18:54:05.240Z,13.36
2022-10-05T18:56:52.547Z,13.39
2022-10-05T18:59:38.607Z,13.37
2022-10-05T19:02:38.518Z,13.23
2022-10-05T19:05:46.507Z,13.20
2022-10-05T19:08:37.222Z,13.22
2022-10-05T19:11:31.453Z,13.24
2022-10-05T19:14:19.378Z,13.32
2022-10-05T19:16:52.842Z,13.19
2022-10-05T19:19:29.317Z,13.18
2022-10-05T19:21:58.277Z,13.13
2022-10-05T19:24:36.767Z,13.08
2022-10-05T19:27:17.423Z,12.95
2022-10-05T19:30:10.666Z,13.11
2022-10-05T19:32:54.263Z,13.10
2022-10-05T19:35:58.326Z,13.18
2022-10-05T19:38:50.742Z,13.20
2022-10-05T19:41:33.267Z,13.11
2022-10-05T19:44:13.028Z,13.10
2022-10-05T19:46:55.324Z,13.00
2022-10-05T19:49:49.360Z,13.11
2022-10-05T19:52:22.805Z,13.08
2022-10-05T19:55:02.295Z,12.92
2022-10-05T19:57:31.443Z,12.93
2022-10-05T19:59:59.481Z,12.78
2022-10-05T20:02:27.312Z,12.67
2022-10-05T20:05:06.898Z,12.64
2022-10-05T20:07:34.962Z,12.74
2022-10-05T20:10:24.447Z,12.56
2022-10-05T20:12:54.913Z,12.62
2022-10-05T20:16:02.498Z,12.57
2022-10-05T20:18:48.167Z,12.64
2022-10-05T20:21:46.724Z,12.57
2022-10-05T20:24:18.450Z,12.56
2022-10-05T20:26:57.705Z,12.58
2022-10-05T20:29:25.445Z,12.30
2022-10-05T20:31:52.894Z,12.29
2022-10-05T20:34:20.513Z,12.34
2022-10-05T20:36:51.664Z,12.39
2022-10-05T20:39:19.258Z,12.24
2022-10-05T20:41:47.188Z,12.28
2022-10-05T20:44:14.703Z,12.30
2022-10-05T20:46:42.152Z,12.44
2022-10-05T20:49:10.125Z,12.21
2022-10-05T20:51:38.881Z,12.23
2022-10-05T20:54:07.605Z,12.26
2022-10-05T20:56:35.284Z,12.35
2022-10-05T20:59:02.674Z,12.34
2022-10-05T21:01:30.113Z,12.25
2022-10-05T21:03:57.958Z,12.24
2022-10-05T21:06:25.553Z,12.08
2022-10-05T21:08:52.825Z,11.97
2022-10-05T21:11:20.776Z,11.93
2022-10-05T21:13:48.022Z,11.84
2022-10-05T21:16:17.716Z,11.77
2022-10-05T21:18:47.604Z,11.66
2022-10-05T21:21:18.395Z,11.72
2022-10-05T21:23:47.353Z,11.63
2022-10-05T21:26:15.332Z,11.49
2022-10-05T21:28:42.981Z,11.38
2022-10-05T21:31:10.642Z,11.40
2022-10-05T21:33:38.022Z,11.26
2022-10-05T21:36:05.498Z,11.32
2022-10-05T21:38:32.778Z,11.25
2022-10-05T21:41:00.052Z,11.18
2022-10-05T21:43:27.601Z,11.15
2022-10-05T21:45:55.589Z,11.21
2022-10-05T21:48:23.816Z,11.36
2022-10-05T21:50:51.222Z,11.33
2022-10-05T21:53:22.783Z,11.43
2022-10-05T21:55:51.882Z,11.23
2022-10-05T21:58:22.282Z,11.24
2022-10-05T22:00:49.641Z,11.05
2022-10-05T22:03:16.943Z,11.02
2022-10-05T22:05:44.466Z,11.01
2022-10-05T22:08:24.963Z,11.08
2022-10-05T22:10:52.628Z,11.10
2022-10-05T22:13:21.420Z,10.91
2022-10-05T22:15:48.736Z,10.87
2022-10-05T22:18:18.060Z,10.79
2022-10-05T22:20:45.993Z,10.67
2022-10-05T22:23:13.287Z,10.85
2022-10-05T22:25:40.960Z,11.04
2022-10-05T22:28:10.893Z,10.84
2022-10-05T22:30:39.006Z,10.77
2022-10-05T22:33:06.320Z,10.65
2022-10-05T22:35:35.187Z,10.63
2022-10-05T22:38:04.023Z,10.65
2022-10-05T22:40:31.577Z,10.57
2022-10-05T22:42:58.904Z,10.36
2022-10-05T22:45:30.329Z,10.27
2022-10-05T22:47:59.657Z,10.38
2022-10-05T22:50:27.232Z,10.61
2022-10-05T22:52:54.616Z,10.51
2022-10-05T22:55:21.939Z,10.32
2022-10-05T22:57:49.235Z,10.30
2022-10-05T23:00:17.522Z,10.19
2022-10-05T23:02:45.100Z,10.31
2022-10-05T23:05:13.124Z,10.24
2022-10-05T23:07:42.644Z,10.20
2022-10-05T23:10:13.646Z,10.19
2022-10-05T23:12:44.863Z,10.14
2022-10-05T23:15:12.166Z,10.18
2022-10-05T23:17:39.642Z,10.16
2022-10-05T23:20:07.940Z,10.12
2022-10-05T23:22:39.118Z,10.03
2022-10-05T23:25:07.701Z,10.01
2022-10-05T23:27:39.403Z,9.98
2022-10-05T23:30:09.135Z,9.96
2022-10-05T23:32:41.564Z,9.89
2022-10-05T23:35:10.996Z,9.92
2022-10-05T23:37:43.904Z,9.90
2022-10-05T23:40:13.440Z,9.93
2022-10-05T23:42:41.482Z,9.87
2022-10-05T23:45:10.407Z,9.80
2022-10-05T23:47:38.872Z,9.76
2022-10-05T23:50:07.620Z,9.76
2022-10-05T23:52:35.451Z,9.71
2022-10-05T23:55:04.796Z,9.82
2022-10-05T23:57:32.115Z,9.74
2022-10-05T23:59:59.461Z,9.70
